Time;durP1;ratioP1;P1;durP2;ratioP2;P2;SDS_P1;SDS_P2;PMS_P1;PMS_P2;Temp;Humidity;BMP_temperature;BMP_pressure;BME280_temperature;BME280_humidity;BME280_pressure;Samples;Min_cycle;Max_cycle;Signal;HPM_P1;HPM_P2
2023/07/04 00:02:07;;;;;;;13.75;4.63;;;15.60;99.90;;;;;;4980119;28;20237;-90
2023/07/04 00:04:33;;;;;;;14.57;5.40;;;15.60;99.90;;;;;;4996998;28;20180;-92
2023/07/04 00:07:00;;;;;;;14.43;5.10;;;15.70;99.90;;;;;;5012201;28;20183;-94
2023/07/04 00:09:26;;;;;;;11.93;4.80;;;15.80;99.90;;;;;;5000769;28;20271;-95
2023/07/04 00:11:58;;;;;;;13.55;5.07;;;15.80;99.90;;;;;;4999888;28;20584;-93
2023/07/04 00:14:24;;;;;;;16.75;5.15;;;15.80;99.90;;;;;;4999980;28;20262;-92
2023/07/04 00:16:49;;;;;;;13.05;5.50;;;15.90;99.90;;;;;;4999466;28;20217;-94
2023/07/04 00:19:15;;;;;;;13.45;5.60;;;15.90;99.90;;;;;;4999873;28;20230;-94
2023/07/04 00:21:50;;;;;;;12.88;5.10;;;15.90;99.90;;;;;;4998859;28;20171;-92
2023/07/04 00:24:17;;;;;;;13.18;5.05;;;15.90;99.90;;;;;;4999334;28;20249;-92
2023/07/04 00:26:42;;;;;;;10.93;5.15;;;15.80;99.90;;;;;;4999770;28;20182;-95
2023/07/04 00:29:08;;;;;;;13.27;4.88;;;15.80;99.90;;;;;;5017555;28;20188;-95
2023/07/04 00:31:40;;;;;;;13.40;4.97;;;15.80;99.90;;;;;;5000923;28;20230;-94
2023/07/04 00:34:06;;;;;;;11.82;5.25;;;15.80;99.90;;;;;;5000684;28;20565;-92
2023/07/04 00:36:34;;;;;;;11.70;4.68;;;15.90;99.90;;;;;;4999600;28;20214;-92
2023/07/04 00:39:00;;;;;;;11.45;4.80;;;15.90;99.90;;;;;;5004226;28;20669;-92
2023/07/04 00:41:29;;;;;;;10.50;4.53;;;16.00;99.90;;;;;;5004393;28;20223;-93
2023/07/04 00:44:11;;;;;;;11.38;5.53;;;16.10;99.90;;;;;;5003818;28;20167;-92
2023/07/04 00:47:10;;;;;;;18.88;5.50;;;16.10;99.90;;;;;;5003742;28;20241;-91
2023/07/04 00:49:48;;;;;;;15.50;5.55;;;16.10;99.90;;;;;;5008878;23;20235;-93
2023/07/04 00:52:27;;;;;;;11.25;5.53;;;16.10;99.90;;;;;;5002703;28;20186;-93
2023/07/04 00:54:57;;;;;;;16.98;5.15;;;16.10;99.90;;;;;;5000647;28;20202;-95
2023/07/04 00:57:26;;;;;;;12.27;5.00;;;16.10;99.90;;;;;;5003634;28;20175;-96
2023/07/04 01:00:18;;;;;;;14.27;4.15;;;16.10;99.90;;;;;;5021830;28;20237;-94
2023/07/04 01:02:45;;;;;;;9.20;4.43;;;16.10;99.90;;;;;;5002483;28;20179;-96
2023/07/04 01:05:15;;;;;;;13.52;5.07;;;16.10;99.90;;;;;;5002586;28;20202;-95
2023/07/04 01:08:18;;;;;;;11.32;4.82;;;16.10;99.90;;;;;;5000704;28;20642;-95
2023/07/04 01:10:46;;;;;;;11.25;4.45;;;16.10;99.90;;;;;;4993025;28;20278;-94
2023/07/04 01:13:33;;;;;;;11.38;4.68;;;16.10;99.90;;;;;;5000128;28;20179;-94
2023/07/04 01:16:04;;;;;;;11.43;4.28;;;16.10;99.90;;;;;;5017868;28;20168;-94
2023/07/04 01:18:30;;;;;;;9.75;4.75;;;16.10;99.90;;;;;;4999112;28;20563;-91
2023/07/04 01:20:58;;;;;;;16.50;4.85;;;16.20;99.90;;;;;;5002019;28;20206;-87
2023/07/04 01:24:01;;;;;;;12.73;4.57;;;16.10;99.90;;;;;;5000352;28;20202;-96
2023/07/04 01:26:36;;;;;;;14.98;4.60;;;16.10;99.90;;;;;;5002652;28;20184;-95
2023/07/04 01:29:08;;;;;;;14.85;3.70;;;16.20;99.90;;;;;;5002232;28;20225;-91
2023/07/04 01:31:36;;;;;;;11.82;3.85;;;16.20;99.90;;;;;;5002150;28;20202;-96
2023/07/04 01:34:06;;;;;;;11.75;4.15;;;16.20;99.90;;;;;;5001200;28;20523;-94
2023/07/04 01:36:37;;;;;;;9.60;3.80;;;16.20;99.90;;;;;;5001891;28;20172;-92
2023/07/04 01:39:04;;;;;;;12.52;3.72;;;16.30;99.90;;;;;;5001717;28;20241;-96
2023/07/04 01:41:32;;;;;;;11.60;3.72;;;16.30;99.90;;;;;;5002157;28;20250;-96
2023/07/04 01:44:04;;;;;;;14.90;3.70;;;16.40;99.90;;;;;;5001726;28;20179;-92
2023/07/04 01:46:31;;;;;;;10.25;3.70;;;16.50;99.90;;;;;;5002417;28;20291;-94
2023/07/04 01:48:57;;;;;;;12.68;3.92;;;16.60;99.90;;;;;;4987154;28;20250;-96
2023/07/04 01:51:28;;;;;;;13.93;3.55;;;16.60;99.90;;;;;;4979017;28;20194;-94
2023/07/04 01:53:55;;;;;;;12.00;3.28;;;16.70;99.90;;;;;;4996964;28;20170;-93
2023/07/04 01:56:21;;;;;;;11.85;3.33;;;16.60;99.90;;;;;;4996527;28;20172;-94
2023/07/04 01:58:47;;;;;;;8.93;3.05;;;16.60;99.90;;;;;;4979017;28;20262;-92
2023/07/04 02:01:13;;;;;;;8.77;2.83;;;16.60;99.90;;;;;;4978710;28;20207;-91
2023/07/04 02:03:39;;;;;;;9.50;2.92;;;16.50;99.90;;;;;;4980803;28;20286;-90
2023/07/04 02:06:06;;;;;;;9.45;2.88;;;16.30;99.90;;;;;;4983977;28;20618;-95
2023/07/04 02:08:32;;;;;;;8.80;2.45;;;16.30;99.90;;;;;;4983147;28;20622;-89
2023/07/04 02:10:57;;;;;;;9.20;2.75;;;16.20;99.90;;;;;;4981986;28;20207;-90
2023/07/04 02:13:26;;;;;;;5.93;2.38;;;16.20;99.90;;;;;;4981855;28;20234;-93
2023/07/04 02:15:51;;;;;;;9.57;2.40;;;16.10;99.90;;;;;;4982394;28;20168;-90
2023/07/04 02:18:18;;;;;;;7.85;2.30;;;16.20;99.90;;;;;;4999480;28;20211;-91
2023/07/04 02:20:43;;;;;;;6.70;2.10;;;16.10;99.90;;;;;;4982862;28;20184;-93
2023/07/04 02:23:10;;;;;;;6.13;2.40;;;16.10;99.90;;;;;;4983012;28;20184;-91
2023/07/04 02:25:43;;;;;;;6.10;1.70;;;16.00;99.90;;;;;;4982483;28;20183;-96
2023/07/04 02:28:10;;;;;;;5.68;1.77;;;16.00;99.90;;;;;;4981922;28;20188;-91
2023/07/04 02:30:37;;;;;;;4.32;1.52;;;15.90;99.90;;;;;;5000057;28;20172;-94
2023/07/04 02:33:18;;;;;;;5.60;1.52;;;15.90;99.90;;;;;;4999339;28;20613;-92
2023/07/04 02:35:47;;;;;;;3.83;1.00;;;15.90;99.90;;;;;;4984062;28;20190;-96
2023/07/04 02:38:12;;;;;;;3.03;1.15;;;15.80;99.90;;;;;;4982760;28;20214;-91
2023/07/04 02:40:46;;;;;;;6.40;1.48;;;15.80;99.90;;;;;;4983031;28;20266;-93
2023/07/04 02:43:13;;;;;;;2.63;1.00;;;15.70;99.90;;;;;;4982253;28;20266;-96
2023/07/04 02:45:39;;;;;;;3.00;1.00;;;15.70;99.90;;;;;;4982134;28;20168;-92
2023/07/04 02:48:06;;;;;;;2.08;0.90;;;15.60;99.90;;;;;;4986197;28;20234;-93
2023/07/04 02:50:32;;;;;;;3.80;1.02;;;15.50;99.90;;;;;;5018850;28;20505;-93
2023/07/04 02:52:59;;;;;;;0.93;0.80;;;15.50;99.90;;;;;;5002172;28;20175;-93
2023/07/04 02:55:25;;;;;;;6.75;0.90;;;15.40;99.90;;;;;;5001027;28;20163;-96
2023/07/04 02:57:52;;;;;;;2.78;0.85;;;15.30;99.90;;;;;;5396349;23;20239;-94
2023/07/04 03:00:17;;;;;;;3.42;0.90;;;15.20;99.90;;;;;;5019446;28;20183;-96
2023/07/04 03:02:43;;;;;;;3.47;0.80;;;15.10;99.90;;;;;;5018634;28;20194;-96
2023/07/04 03:05:09;;;;;;;4.63;0.90;;;15.10;99.90;;;;;;5018353;28;20186;-92
2023/07/04 03:07:35;;;;;;;1.67;0.88;;;15.00;99.90;;;;;;5017065;28;20186;-90
2023/07/04 03:10:01;;;;;;;2.83;0.85;;;14.90;99.90;;;;;;5018173;28;20263;-94
2023/07/04 03:12:27;;;;;;;3.13;0.75;;;14.80;99.90;;;;;;5001297;28;20327;-93
2023/07/04 03:14:53;;;;;;;1.80;0.93;;;14.80;99.90;;;;;;5015835;28;20275;-91
2023/07/04 03:17:18;;;;;;;3.53;0.70;;;14.80;99.90;;;;;;5017331;28;20521;-90
2023/07/04 03:19:45;;;;;;;3.08;0.70;;;14.70;99.90;;;;;;5016771;28;20218;-90
2023/07/04 03:22:11;;;;;;;1.90;0.68;;;14.70;99.90;;;;;;5017336;28;20241;-93
2023/07/04 03:24:37;;;;;;;2.05;0.75;;;14.60;99.90;;;;;;5016653;28;20171;-91
2023/07/04 03:27:03;;;;;;;3.38;1.00;;;14.60;99.90;;;;;;5016065;28;20195;-90
2023/07/04 03:29:31;;;;;;;1.30;0.50;;;14.60;99.90;;;;;;5016229;28;20198;-93
2023/07/04 03:31:57;;;;;;;1.85;0.63;;;14.60;99.90;;;;;;5017867;28;20160;-91
2023/07/04 03:34:23;;;;;;;1.15;0.65;;;14.60;99.90;;;;;;5018386;28;20179;-92
2023/07/04 03:36:48;;;;;;;2.42;0.80;;;14.60;99.90;;;;;;5016583;28;20171;-92
2023/07/04 03:39:25;;;;;;;0.90;0.60;;;14.70;99.90;;;;;;5016309;28;20312;-92
2023/07/04 03:41:51;;;;;;;1.77;0.80;;;14.70;99.90;;;;;;5016260;28;20171;-92
2023/07/04 03:44:17;;;;;;;1.17;0.65;;;14.70;99.90;;;;;;5019146;28;20198;-92
2023/07/04 03:46:42;;;;;;;1.17;0.68;;;14.70;99.90;;;;;;5016720;28;20190;-90
2023/07/04 03:49:09;;;;;;;1.70;0.60;;;14.70;99.90;;;;;;5016054;28;20179;-92
2023/07/04 03:51:35;;;;;;;1.63;0.70;;;14.70;99.90;;;;;;5017068;28;20168;-91
2023/07/04 03:54:00;;;;;;;1.45;0.70;;;14.70;99.90;;;;;;5016965;28;20209;-96
2023/07/04 03:56:26;;;;;;;2.80;0.90;;;14.70;99.90;;;;;;5016529;28;20234;-91
2023/07/04 03:58:54;;;;;;;1.92;0.80;;;14.70;99.90;;;;;;5015861;28;20235;-96
2023/07/04 04:01:20;;;;;;;1.67;0.68;;;14.70;99.90;;;;;;5016552;28;20241;-93
2023/07/04 04:03:46;;;;;;;1.75;0.90;;;14.70;99.90;;;;;;5017743;28;20629;-92
2023/07/04 04:06:12;;;;;;;2.90;0.95;;;14.70;99.90;;;;;;5017013;28;20171;-95
2023/07/04 04:08:52;;;;;;;5.25;1.15;;;14.70;99.90;;;;;;5017299;28;20282;-95
2023/07/04 04:11:18;;;;;;;3.25;1.10;;;14.70;99.90;;;;;;5015670;28;20170;-96
2023/07/04 04:13:44;;;;;;;4.78;1.40;;;14.80;99.90;;;;;;5016911;28;20179;-94
2023/07/04 04:16:10;;;;;;;4.95;1.80;;;14.80;99.90;;;;;;5016769;28;20180;-91
2023/07/04 04:18:35;;;;;;;4.47;1.38;;;14.70;99.90;;;;;;5016614;28;20528;-92
2023/07/04 04:21:01;;;;;;;4.75;1.58;;;14.70;99.90;;;;;;5016788;28;20190;-95
2023/07/04 04:23:27;;;;;;;3.53;1.20;;;14.80;99.90;;;;;;5017786;28;20179;-96
2023/07/04 04:25:52;;;;;;;4.38;1.63;;;14.70;99.90;;;;;;5016315;28;20179;-94
2023/07/04 04:28:18;;;;;;;2.63;1.50;;;14.80;99.90;;;;;;5016027;28;20270;-90
2023/07/04 04:30:44;;;;;;;3.97;1.38;;;14.80;99.90;;;;;;5016051;28;20934;-91
2023/07/04 04:33:10;;;;;;;1.88;1.10;;;14.80;99.90;;;;;;5015737;28;20184;-96
2023/07/04 04:35:39;;;;;;;4.43;1.70;;;14.80;99.90;;;;;;5016129;28;20275;-91
2023/07/04 04:38:07;;;;;;;3.72;1.50;;;14.80;99.90;;;;;;5015832;28;20203;-92
2023/07/04 04:40:33;;;;;;;4.03;1.63;;;14.80;99.90;;;;;;5017544;28;20183;-90
2023/07/04 04:42:59;;;;;;;6.68;1.38;;;14.80;99.90;;;;;;5016580;28;20168;-95
2023/07/04 04:45:24;;;;;;;4.88;1.35;;;14.80;99.90;;;;;;5016575;28;20266;-96
2023/07/04 04:47:53;;;;;;;3.15;1.30;;;14.90;99.90;;;;;;5015754;28;20183;-94
2023/07/04 04:50:23;;;;;;;3.42;1.40;;;14.90;99.90;;;;;;5016755;28;20643;-94
2023/07/04 04:52:49;;;;;;;3.80;1.38;;;14.90;99.90;;;;;;5014458;28;20668;-89
2023/07/04 04:55:16;;;;;;;4.88;1.30;;;14.90;99.90;;;;;;5014616;28;20270;-92
2023/07/04 04:57:42;;;;;;;3.33;1.17;;;15.00;99.90;;;;;;5014752;28;20325;-91
2023/07/04 05:00:09;;;;;;;4.20;1.60;;;15.00;99.90;;;;;;5015305;28;20219;-96
2023/07/04 05:02:36;;;;;;;3.53;1.70;;;15.10;99.90;;;;;;5015789;28;20175;-93
2023/07/04 05:05:02;;;;;;;3.22;1.08;;;15.10;99.90;;;;;;4999130;28;20625;-94
2023/07/04 05:07:29;;;;;;;3.25;0.95;;;15.00;99.90;;;;;;5014718;28;20248;-89
2023/07/04 05:10:05;;;;;;;3.03;1.33;;;15.10;99.90;;;;;;5014898;28;20966;-91
2023/07/04 05:12:31;;;;;;;4.38;1.42;;;15.10;99.90;;;;;;5014115;28;20186;-92
2023/07/04 05:14:57;;;;;;;4.60;1.50;;;15.20;99.90;;;;;;5015045;28;20187;-91
2023/07/04 05:17:23;;;;;;;3.58;1.15;;;15.30;99.90;;;;;;5014872;28;20525;-93
2023/07/04 05:19:50;;;;;;;6.32;1.13;;;15.30;99.90;;;;;;5015187;28;20202;-91
2023/07/04 05:22:17;;;;;;;2.85;1.00;;;15.40;99.90;;;;;;5015285;28;20171;-91
2023/07/04 05:24:42;;;;;;;4.35;1.25;;;15.40;99.90;;;;;;5014930;28;20193;-93
2023/07/04 05:27:08;;;;;;;2.28;0.90;;;15.50;99.90;;;;;;5016024;28;20187;-89
2023/07/04 05:29:34;;;;;;;2.72;1.02;;;15.60;99.90;;;;;;5014944;28;20521;-95
2023/07/04 05:32:00;;;;;;;2.47;1.00;;;15.60;99.90;;;;;;5015305;28;20182;-93
2023/07/04 05:34:26;;;;;;;3.33;1.00;;;15.50;99.90;;;;;;5013851;28;20663;-88
2023/07/04 05:36:51;;;;;;;6.38;1.25;;;15.60;99.90;;;;;;5013677;28;20191;-88
2023/07/04 05:39:17;;;;;;;2.85;1.05;;;15.50;99.90;;;;;;5013583;28;20555;-90
2023/07/04 05:41:43;;;;;;;3.33;1.20;;;15.50;99.90;;;;;;5016215;28;20514;-96
2023/07/04 05:44:10;;;;;;;5.57;1.10;;;15.40;99.90;;;;;;5015023;28;20190;-90
2023/07/04 05:46:37;;;;;;;5.28;1.40;;;15.40;99.90;;;;;;5014824;28;20198;-92
2023/07/04 05:49:04;;;;;;;4.72;0.93;;;15.40;99.90;;;;;;5014793;28;20278;-94
2023/07/04 05:51:30;;;;;;;4.15;0.90;;;15.40;99.90;;;;;;5014824;28;20584;-96
2023/07/04 05:53:55;;;;;;;5.13;1.52;;;15.60;99.90;;;;;;5014553;28;20237;-95
2023/07/04 05:56:29;;;;;;;3.47;1.05;;;15.80;99.90;;;;;;5014108;28;20213;-94
2023/07/04 05:59:00;;;;;;;4.25;1.20;;;15.90;99.90;;;;;;5014830;28;20254;-94
2023/07/04 06:01:34;;;;;;;2.55;0.98;;;15.90;99.90;;;;;;5013959;28;20629;-89
2023/07/04 06:04:02;;;;;;;4.00;1.10;;;15.90;99.90;;;;;;5015446;28;20170;-93
2023/07/04 06:06:32;;;;;;;4.03;1.08;;;15.80;99.90;;;;;;5014267;28;20218;-89
2023/07/04 06:09:00;;;;;;;3.95;1.15;;;15.80;99.90;;;;;;5014419;28;20614;-89
2023/07/04 06:11:30;;;;;;;4.38;1.10;;;15.80;99.90;;;;;;5014409;28;20183;-94
2023/07/04 06:13:57;;;;;;;3.88;0.98;;;15.80;99.90;;;;;;5013826;28;20247;-89
2023/07/04 06:16:23;;;;;;;3.15;0.95;;;15.80;99.90;;;;;;5013813;28;20176;-91
2023/07/04 06:18:49;;;;;;;5.28;1.33;;;15.80;99.90;;;;;;5014999;28;20578;-90
2023/07/04 06:21:17;;;;;;;3.47;1.30;;;15.80;99.90;;;;;;5015344;28;20178;-89
2023/07/04 06:23:43;;;;;;;7.63;1.63;;;15.90;99.90;;;;;;5014171;28;20167;-91
2023/07/04 06:26:10;;;;;;;4.07;0.90;;;15.90;99.90;;;;;;5014927;28;20610;-93
2023/07/04 06:28:37;;;;;;;3.22;1.02;;;16.00;99.90;;;;;;5013529;28;20191;-91
2023/07/04 06:31:04;;;;;;;3.35;1.33;;;16.00;99.90;;;;;;5014126;28;20270;-91
2023/07/04 06:33:31;;;;;;;4.05;1.20;;;16.00;99.90;;;;;;5012310;28;20176;-90
2023/07/04 06:35:56;;;;;;;3.20;1.23;;;16.20;99.90;;;;;;5012552;28;20207;-94
2023/07/04 06:38:23;;;;;;;2.63;1.08;;;16.20;99.90;;;;;;5013242;28;20292;-89
2023/07/04 06:41:02;;;;;;;2.78;1.13;;;16.20;99.90;;;;;;4997916;28;20242;-87
2023/07/04 06:43:30;;;;;;;4.88;1.33;;;16.30;99.90;;;;;;5015004;28;20171;-91
2023/07/04 06:45:56;;;;;;;4.30;1.23;;;16.30;99.90;;;;;;5014433;28;20186;-90
2023/07/04 06:48:23;;;;;;;5.93;1.33;;;16.30;99.90;;;;;;5014429;28;20237;-90
2023/07/04 06:51:12;;;;;;;6.95;1.33;;;16.30;99.90;;;;;;5017209;28;20179;-96
2023/07/04 06:53:38;;;;;;;4.30;1.25;;;16.40;99.90;;;;;;5018023;28;20175;-91
2023/07/04 06:56:16;;;;;;;3.05;1.30;;;16.40;99.90;;;;;;5017239;28;20182;-96
2023/07/04 06:58:48;;;;;;;7.32;1.45;;;16.30;99.90;;;;;;5018332;28;20611;-92
2023/07/04 07:01:16;;;;;;;3.58;1.40;;;16.40;99.90;;;;;;5019696;28;20167;-92
2023/07/04 07:03:42;;;;;;;5.78;1.55;;;16.50;99.90;;;;;;5017677;28;20179;-96
2023/07/04 07:06:09;;;;;;;3.53;1.27;;;16.70;99.90;;;;;;5019173;28;20705;-94
2023/07/04 07:08:36;;;;;;;5.22;1.50;;;16.70;99.90;;;;;;5017368;28;20179;-93
2023/07/04 07:11:05;;;;;;;4.43;1.83;;;16.80;99.90;;;;;;5000813;28;20190;-91
2023/07/04 07:13:31;;;;;;;5.55;1.40;;;16.90;99.90;;;;;;5016281;28;20721;-93
2023/07/04 07:16:10;;;;;;;9.30;1.60;;;16.80;99.90;;;;;;5016499;28;20221;-92
2023/07/04 07:18:37;;;;;;;5.88;1.70;;;16.90;99.90;;;;;;5016644;28;20202;-93
2023/07/04 07:21:07;;;;;;;6.40;1.63;;;16.80;99.90;;;;;;5016591;28;20187;-93
2023/07/04 07:23:34;;;;;;;5.68;1.80;;;16.80;99.90;;;;;;5016301;28;20221;-91
2023/07/04 07:26:02;;;;;;;4.35;1.75;;;16.80;99.90;;;;;;5016671;28;20614;-92
2023/07/04 07:28:30;;;;;;;6.28;2.03;;;16.70;99.90;;;;;;5016408;28;20175;-91
2023/07/04 07:31:09;;;;;;;5.88;1.88;;;16.80;99.90;;;;;;5016017;28;20229;-90
2023/07/04 07:33:37;;;;;;;3.72;1.58;;;17.00;99.90;;;;;;5017211;28;20171;-91
2023/07/04 07:36:24;;;;;;;9.38;1.90;;;17.40;99.90;;;;;;5010946;28;20188;-92
2023/07/04 07:38:52;;;;;;;4.15;1.65;;;17.90;99.90;;;;;;4998018;28;20671;-91
2023/07/04 07:41:21;;;;;;;4.88;1.65;;;18.20;99.90;;;;;;4996864;28;20172;-90
2023/07/04 07:43:47;;;;;;;6.75;2.13;;;18.40;99.90;;;;;;4996371;28;20183;-91
2023/07/04 07:46:15;;;;;;;6.10;1.70;;;18.20;99.90;;;;;;4996642;28;20263;-91
2023/07/04 07:48:41;;;;;;;7.90;1.83;;;18.10;99.90;;;;;;4996579;28;20183;-90
2023/07/04 07:51:12;;;;;;;4.88;1.63;;;18.00;99.90;;;;;;4996412;28;20176;-90
2023/07/04 07:53:39;;;;;;;6.90;2.00;;;17.90;99.90;;;;;;4996519;28;20266;-90
2023/07/04 07:56:07;;;;;;;5.30;1.60;;;17.70;99.90;;;;;;4996246;28;20187;-88
2023/07/04 07:58:33;;;;;;;6.53;1.90;;;17.70;99.90;;;;;;4995699;28;20239;-91
2023/07/04 08:00:59;;;;;;;13.38;2.08;;;17.70;99.90;;;;;;4995641;28;20259;-90
2023/07/04 08:03:27;;;;;;;9.23;2.33;;;17.80;99.90;;;;;;4995583;28;20275;-90
2023/07/04 08:05:52;;;;;;;9.52;2.00;;;17.70;99.90;;;;;;4983562;28;20183;-92
2023/07/04 08:08:18;;;;;;;6.55;2.58;;;17.60;99.90;;;;;;5015265;28;20249;-90
2023/07/04 08:10:44;;;;;;;7.53;2.30;;;17.50;99.90;;;;;;5015068;28;20190;-88
2023/07/04 08:13:12;;;;;;;8.18;2.17;;;17.40;99.90;;;;;;5014845;28;20187;-91
2023/07/04 08:15:37;;;;;;;7.25;2.38;;;17.40;99.90;;;;;;5015213;28;20226;-90
2023/07/04 08:18:10;;;;;;;7.88;2.10;;;17.40;99.90;;;;;;5014894;28;20203;-86
2023/07/04 08:20:37;;;;;;;7.10;2.40;;;17.40;99.90;;;;;;5016197;28;20705;-89
2023/07/04 08:23:12;;;;;;;7.20;2.50;;;17.40;99.90;;;;;;5015908;28;20175;-91
2023/07/04 08:25:38;;;;;;;8.70;2.97;;;17.40;99.90;;;;;;5015181;28;20175;-90
2023/07/04 08:28:04;;;;;;;10.15;3.30;;;17.30;99.90;;;;;;5015034;28;20229;-90
2023/07/04 08:30:30;;;;;;;14.27;3.47;;;17.40;99.90;;;;;;5014918;28;20183;-88
2023/07/04 08:33:02;;;;;;;16.20;3.42;;;17.50;99.90;;;;;;5016285;28;20171;-89
2023/07/04 08:35:28;;;;;;;7.55;2.95;;;17.40;99.90;;;;;;5016229;28;20164;-90
2023/07/04 08:37:53;;;;;;;11.52;3.10;;;17.50;99.90;;;;;;5015220;28;20229;-91
2023/07/04 08:40:19;;;;;;;10.38;3.42;;;17.40;99.90;;;;;;4998864;28;20183;-91
2023/07/04 08:42:46;;;;;;;9.38;3.33;;;17.40;99.90;;;;;;5014782;28;20249;-89
2023/07/04 08:45:28;;;;;;;8.90;3.55;;;17.40;99.90;;;;;;5014810;28;20175;-90
2023/07/04 08:47:55;;;;;;;5.72;2.67;;;17.30;99.90;;;;;;4999336;28;20206;-90
2023/07/04 08:50:33;;;;;;;9.35;3.13;;;17.30;99.90;;;;;;5012259;28;20685;-91
2023/07/04 08:53:24;;;;;;;8.77;2.63;;;17.20;99.90;;;;;;5013199;28;20186;-88
2023/07/04 08:56:27;;;;;;;11.07;2.55;;;17.10;99.90;;;;;;5015608;28;20194;-88
2023/07/04 08:58:53;;;;;;;7.97;3.08;;;17.10;99.90;;;;;;5014139;28;20699;-90
2023/07/04 09:01:53;;;;;;;8.98;3.65;;;17.10;99.90;;;;;;5013904;28;20183;-90
2023/07/04 09:04:35;;;;;;;11.77;3.05;;;17.20;99.90;;;;;;4993306;28;20191;-91
2023/07/04 09:07:15;;;;;;;7.97;3.08;;;17.30;99.90;;;;;;5014349;28;20183;-90
2023/07/04 09:09:47;;;;;;;8.85;2.70;;;17.50;99.90;;;;;;5015692;28;20191;-94
2023/07/04 09:12:15;;;;;;;6.28;2.63;;;17.70;99.90;;;;;;4997619;28;20187;-90
2023/07/04 09:14:53;;;;;;;7.75;2.30;;;17.70;99.90;;;;;;5013885;28;20175;-90
2023/07/04 09:17:43;;;;;;;7.28;2.72;;;17.60;99.90;;;;;;5015593;28;20171;-92
2023/07/04 09:20:10;;;;;;;7.25;2.67;;;17.50;99.90;;;;;;5014213;28;20281;-90
2023/07/04 09:22:38;;;;;;;6.53;2.20;;;17.30;99.90;;;;;;5014150;28;20517;-90
2023/07/04 09:25:05;;;;;;;6.63;1.85;;;17.30;99.90;;;;;;5014467;28;20179;-91
2023/07/04 09:27:32;;;;;;;5.40;2.20;;;17.50;99.90;;;;;;5013877;28;20171;-91
2023/07/04 09:29:57;;;;;;;5.65;2.28;;;17.60;99.90;;;;;;5013646;28;20255;-89
2023/07/04 09:32:23;;;;;;;5.50;2.10;;;17.70;99.90;;;;;;5013970;28;20191;-90
2023/07/04 09:34:54;;;;;;;6.85;2.10;;;17.90;99.90;;;;;;5014220;28;20175;-91
2023/07/04 09:37:22;;;;;;;4.28;1.67;;;18.10;99.90;;;;;;5013168;28;20190;-89
2023/07/04 09:39:55;;;;;;;3.25;1.80;;;18.20;99.90;;;;;;5013205;28;20215;-91
2023/07/04 09:42:44;;;;;;;5.78;1.75;;;18.30;99.90;;;;;;5013979;28;20172;-90
2023/07/04 09:45:13;;;;;;;6.00;1.65;;;18.40;99.90;;;;;;5013105;28;20179;-92
2023/07/04 09:47:47;;;;;;;4.13;1.85;;;18.30;99.90;;;;;;5013882;28;20274;-89
2023/07/04 09:50:26;;;;;;;3.78;1.55;;;18.40;99.90;;;;;;5014288;28;20186;-90
2023/07/04 09:53:16;;;;;;;4.82;1.60;;;18.70;99.90;;;;;;5014254;28;20565;-92
2023/07/04 09:55:56;;;;;;;4.47;1.65;;;18.90;99.90;;;;;;5013944;28;20171;-90
2023/07/04 09:58:23;;;;;;;5.35;1.35;;;19.10;99.90;;;;;;5013799;28;20269;-94
2023/07/04 10:01:18;;;;;;;5.05;1.33;;;19.20;99.90;;;;;;5015266;28;20644;-88
2023/07/04 10:03:46;;;;;;;4.22;1.55;;;19.40;99.90;;;;;;5014781;28;20636;-90
2023/07/04 10:06:28;;;;;;;5.43;1.38;;;19.60;99.90;;;;;;5013816;28;20277;-89
2023/07/04 10:08:55;;;;;;;5.68;1.55;;;19.60;99.90;;;;;;5013811;28;20186;-90
2023/07/04 10:11:36;;;;;;;5.13;1.40;;;19.60;99.90;;;;;;5013283;28;20187;-90
2023/07/04 10:14:09;;;;;;;5.35;1.52;;;19.50;99.90;;;;;;5013169;28;20179;-92
2023/07/04 10:16:36;;;;;;;4.13;1.58;;;19.50;99.90;;;;;;5013367;28;20175;-90
2023/07/04 10:19:10;;;;;;;4.32;1.45;;;19.60;99.90;;;;;;5013758;28;20221;-90
2023/07/04 10:21:45;;;;;;;4.65;1.20;;;19.80;99.90;;;;;;5013763;28;20178;-90
2023/07/04 10:24:24;;;;;;;4.88;1.20;;;19.70;99.90;;;;;;5015057;28;20183;-92
2023/07/04 10:26:57;;;;;;;4.55;1.30;;;19.80;99.90;;;;;;5018233;28;20520;-90
2023/07/04 10:29:32;;;;;;;4.75;1.63;;;20.00;99.90;;;;;;5017905;28;20266;-91
2023/07/04 10:32:03;;;;;;;7.13;1.30;;;20.20;99.90;;;;;;5018344;28;20614;-90
2023/07/04 10:34:36;;;;;;;4.78;1.50;;;20.20;99.90;;;;;;5001171;28;20270;-88
2023/07/04 10:37:03;;;;;;;3.97;1.20;;;20.20;99.90;;;;;;5017686;28;20183;-91
2023/07/04 10:39:31;;;;;;;5.45;1.45;;;20.30;99.90;;;;;;5017366;28;20211;-89
2023/07/04 10:42:23;;;;;;;3.55;1.30;;;20.10;99.40;;;;;;5017614;28;20171;-94
2023/07/04 10:44:53;;;;;;;4.28;1.45;;;20.10;99.90;;;;;;5016953;28;20187;-90
2023/07/04 10:47:47;;;;;;;6.03;1.40;;;20.40;99.90;;;;;;5017226;28;20210;-90
2023/07/04 10:50:24;;;;;;;3.33;1.27;;;20.70;99.90;;;;;;5015847;28;20187;-92
2023/07/04 10:52:49;;;;;;;5.18;1.50;;;21.00;99.20;;;;;;5017229;28;20610;-91
2023/07/04 10:55:22;;;;;;;8.25;1.75;;;20.70;96.60;;;;;;5018022;28;20187;-88
2023/07/04 10:58:00;;;;;;;4.70;1.75;;;20.50;97.30;;;;;;5011395;28;20265;-91
2023/07/04 11:00:41;;;;;;;6.45;1.80;;;20.60;98.60;;;;;;5017099;28;20190;-91
2023/07/04 11:03:27;;;;;;;7.22;1.63;;;20.70;98.70;;;;;;5017200;28;20514;-91
2023/07/04 11:05:56;;;;;;;5.35;1.50;;;20.60;97.80;;;;;;5017207;28;20187;-90
2023/07/04 11:08:26;;;;;;;7.25;1.80;;;20.30;98.70;;;;;;5017112;28;20194;-89
2023/07/04 11:10:59;;;;;;;4.43;1.48;;;20.00;97.50;;;;;;5017019;28;20211;-92
2023/07/04 11:13:25;;;;;;;4.45;1.65;;;19.90;98.50;;;;;;5016708;28;20215;-90
2023/07/04 11:15:58;;;;;;;6.00;1.92;;;20.20;99.90;;;;;;5016636;28;20241;-91
2023/07/04 11:18:29;;;;;;;5.63;1.25;;;20.60;99.90;;;;;;5018802;28;20211;-91
2023/07/04 11:21:08;;;;;;;4.55;1.50;;;20.90;99.60;;;;;;5017516;28;20202;-90
2023/07/04 11:23:56;;;;;;;4.05;1.48;;;21.00;97.50;;;;;;5016897;28;20179;-95
2023/07/04 11:26:50;;;;;;;4.72;1.65;;;20.80;97.90;;;;;;5018410;28;20164;-91
2023/07/04 11:29:19;;;;;;;5.93;1.65;;;20.40;98.70;;;;;;4998512;28;20191;-94
2023/07/04 11:32:03;;;;;;;8.77;1.98;;;20.00;99.20;;;;;;5016744;28;20183;-92
2023/07/04 11:34:50;;;;;;;8.20;1.65;;;19.70;99.90;;;;;;5017606;28;20177;-92
2023/07/04 11:37:23;;;;;;;6.13;1.40;;;19.60;99.20;;;;;;5008440;28;20179;-95
2023/07/04 11:39:53;;;;;;;6.07;1.50;;;19.40;99.90;;;;;;5017437;28;20274;-90
2023/07/04 11:42:22;;;;;;;4.18;1.83;;;19.30;99.20;;;;;;5017549;28;20172;-90
2023/07/04 11:45:06;;;;;;;4.35;1.80;;;19.20;99.90;;;;;;5015948;28;20251;-94
2023/07/04 11:47:44;;;;;;;5.63;2.15;;;19.30;99.90;;;;;;5017167;28;20222;-88
2023/07/04 11:50:19;;;;;;;6.15;1.80;;;19.80;99.90;;;;;;5016163;28;20274;-90
2023/07/04 11:52:55;;;;;;;8.13;1.65;;;20.20;99.90;;;;;;5016410;28;20602;-89
2023/07/04 11:55:31;;;;;;;8.35;2.13;;;20.50;98.90;;;;;;5015761;28;20657;-90
2023/07/04 11:57:59;;;;;;;6.88;1.80;;;20.40;98.50;;;;;;5015731;28;20223;-89
2023/07/04 12:00:40;;;;;;;6.55;1.83;;;20.20;98.20;;;;;;5015824;28;20175;-91
2023/07/04 12:03:18;;;;;;;5.30;2.03;;;20.00;98.80;;;;;;5016550;28;20171;-91
2023/07/04 12:05:49;;;;;;;6.00;2.10;;;19.70;99.90;;;;;;5016984;28;20179;-87
2023/07/04 12:08:28;;;;;;;6.95;2.20;;;19.50;99.90;;;;;;5016079;28;20186;-94
2023/07/04 12:11:00;;;;;;;7.10;2.13;;;19.30;99.40;;;;;;5016610;28;20250;-88
2023/07/04 12:13:29;;;;;;;6.15;2.08;;;19.40;99.90;;;;;;5015839;28;20171;-90
2023/07/04 12:15:57;;;;;;;4.68;2.30;;;19.30;99.90;;;;;;5016141;28;20198;-89
2023/07/04 12:18:28;;;;;;;6.50;2.17;;;19.40;99.90;;;;;;5015101;28;20199;-92
2023/07/04 12:20:57;;;;;;;5.40;2.15;;;19.50;99.90;;;;;;5015138;28;20210;-93
2023/07/04 12:23:23;;;;;;;6.15;2.13;;;19.50;99.90;;;;;;5016192;28;20167;-88
2023/07/04 12:25:52;;;;;;;8.13;2.30;;;19.40;99.90;;;;;;5015792;28;20179;-88
2023/07/04 12:28:24;;;;;;;8.63;2.55;;;19.30;99.90;;;;;;5014706;28;20653;-91
2023/07/04 12:31:01;;;;;;;6.00;2.38;;;19.00;99.90;;;;;;5015985;28;20175;-88
2023/07/04 12:33:31;;;;;;;9.65;2.10;;;18.90;99.90;;;;;;5015171;28;20183;-88
2023/07/04 12:36:09;;;;;;;6.45;2.00;;;18.90;99.90;;;;;;5012296;28;20179;-88
2023/07/04 12:39:05;;;;;;;8.27;2.35;;;18.70;99.90;;;;;;4995056;28;20215;-90
2023/07/04 12:41:31;;;;;;;4.38;1.83;;;18.60;99.90;;;;;;4993898;28;20194;-89
2023/07/04 12:44:02;;;;;;;7.75;2.38;;;18.60;99.90;;;;;;4994652;28;20207;-86
2023/07/04 12:46:33;;;;;;;8.80;2.63;;;18.50;99.90;;;;;;4995173;28;20183;-89
2023/07/04 12:49:00;;;;;;;6.60;2.42;;;18.40;99.90;;;;;;4994217;28;20215;-88
2023/07/04 12:51:30;;;;;;;6.38;2.65;;;18.40;99.90;;;;;;4994022;28;20176;-88
2023/07/04 12:54:00;;;;;;;5.95;2.20;;;18.40;99.90;;;;;;4995367;28;20611;-89
2023/07/04 12:56:28;;;;;;;7.15;2.10;;;18.50;99.90;;;;;;4994226;28;20183;-91
2023/07/04 12:58:54;;;;;;;5.90;2.60;;;18.50;99.90;;;;;;4994202;28;20548;-87
2023/07/04 13:01:34;;;;;;;8.50;2.40;;;18.50;99.90;;;;;;4994756;28;20600;-89
2023/07/04 13:04:15;;;;;;;8.20;2.30;;;18.50;99.90;;;;;;4994845;28;20187;-91